Time;durP1;ratioP1;P1;durP2;ratioP2;P2;SDS_P1;SDS_P2;PMS_P1;PMS_P2;Temp;Humidity;BMP_temperature;BMP_pressure;BME280_temperature;BME280_humidity;BME280_pressure;Samples;Min_cycle;Max_cycle;Signal;HPM_P1;HPM_P2
2023/01/20 06:00:37;;;;;;;12.30;11.20;;;2.50;97.20;;;;;;1707621;28;20195;-66
2023/01/20 06:01:28;;;;;;;12.63;11.25;;;2.50;97.20;;;;;;1707005;28;20211;-67
2023/01/20 06:02:20;;;;;;;12.10;10.93;;;2.50;97.20;;;;;;1707491;28;20226;-66
2023/01/20 06:03:10;;;;;;;12.35;11.20;;;2.50;97.20;;;;;;1707595;28;20245;-67
2023/01/20 06:04:02;;;;;;;11.80;10.70;;;2.50;97.20;;;;;;1707626;28;20213;-67
2023/01/20 06:04:54;;;;;;;12.07;10.93;;;2.50;97.20;;;;;;1707681;28;20246;-67
2023/01/20 06:05:48;;;;;;;11.68;10.68;;;2.50;97.20;;;;;;1707587;28;20230;-66
2023/01/20 06:06:38;;;;;;;12.45;11.25;;;2.60;97.20;;;;;;1707341;28;20264;-67
2023/01/20 06:07:30;;;;;;;12.37;11.17;;;2.60;97.20;;;;;;1707607;28;20194;-67
2023/01/20 06:08:21;;;;;;;12.50;11.25;;;2.60;97.20;;;;;;1706697;28;20206;-66
2023/01/20 06:09:13;;;;;;;13.20;11.80;;;2.60;97.20;;;;;;1707418;28;20665;-67
2023/01/20 06:10:04;;;;;;;12.90;11.70;;;2.60;97.20;;;;;;1707476;28;20245;-67
2023/01/20 06:10:56;;;;;;;12.27;11.18;;;2.70;97.20;;;;;;1707579;28;20305;-67
2023/01/20 06:11:46;;;;;;;12.85;11.65;;;2.70;97.20;;;;;;1706657;28;20209;-67
2023/01/20 06:12:38;;;;;;;11.63;10.50;;;2.70;97.20;;;;;;1707439;29;20199;-66
2023/01/20 06:13:29;;;;;;;14.50;12.90;;;2.70;97.20;;;;;;1707439;29;20234;-67
2023/01/20 06:14:21;;;;;;;13.23;12.03;;;2.70;97.20;;;;;;1707467;29;20210;-67
2023/01/20 06:15:11;;;;;;;12.95;11.70;;;2.70;97.20;;;;;;1707518;29;20833;-67
2023/01/20 06:16:05;;;;;;;13.37;12.03;;;2.70;97.20;;;;;;1707469;29;20220;-67
2023/01/20 06:16:56;;;;;;;12.77;11.57;;;2.70;97.20;;;;;;1707030;29;20195;-67
2023/01/20 06:17:48;;;;;;;13.87;12.43;;;2.70;97.20;;;;;;1707310;29;20660;-67
2023/01/20 06:18:39;;;;;;;13.30;12.10;;;2.80;97.20;;;;;;1707517;29;20668;-67
2023/01/20 06:19:30;;;;;;;12.43;11.30;;;2.80;97.20;;;;;;1707574;29;20653;-66
2023/01/20 06:20:21;;;;;;;11.23;10.07;;;2.70;97.20;;;;;;1706988;29;20242;-67
2023/01/20 06:21:13;;;;;;;11.85;10.75;;;2.80;97.20;;;;;;1706868;29;20204;-67
2023/01/20 06:22:05;;;;;;;11.13;10.05;;;2.70;97.20;;;;;;1707369;28;20210;-66
2023/01/20 06:22:57;;;;;;;12.10;10.90;;;2.70;97.20;;;;;;1707694;28;20241;-66
2023/01/20 06:23:48;;;;;;;12.10;10.90;;;2.70;97.20;;;;;;1707686;28;20253;-67
2023/01/20 06:24:40;;;;;;;12.80;11.50;;;2.70;97.20;;;;;;1707540;28;20207;-66
2023/01/20 06:25:31;;;;;;;11.75;10.55;;;2.60;97.20;;;;;;1707439;28;20210;-67
2023/01/20 06:26:22;;;;;;;11.33;10.20;;;2.60;97.20;;;;;;1707291;28;20226;-66
2023/01/20 06:27:13;;;;;;;12.95;11.65;;;2.60;97.20;;;;;;1706936;28;20202;-67
2023/01/20 06:28:05;;;;;;;11.33;10.30;;;2.60;97.20;;;;;;1707434;28;20289;-67
2023/01/20 06:28:58;;;;;;;11.90;10.65;;;2.50;97.20;;;;;;1707477;29;20207;-66
2023/01/20 06:29:50;;;;;;;12.60;11.30;;;2.50;97.20;;;;;;1707414;28;20265;-67
2023/01/20 06:30:42;;;;;;;11.50;10.35;;;2.50;97.20;;;;;;1707305;28;20230;-67
2023/01/20 06:31:35;;;;;;;12.88;11.57;;;2.50;97.20;;;;;;1707007;28;20206;-66
2023/01/20 06:32:25;;;;;;;12.43;11.18;;;2.50;97.20;;;;;;1707412;28;20202;-67
2023/01/20 06:33:17;;;;;;;12.10;10.70;;;2.40;97.20;;;;;;1707454;28;20561;-67
2023/01/20 06:34:09;;;;;;;12.20;11.10;;;2.40;97.20;;;;;;1707400;28;20686;-66
2023/01/20 06:35:00;;;;;;;12.15;11.02;;;2.40;97.20;;;;;;1707389;28;20206;-66
2023/01/20 06:35:53;;;;;;;12.00;10.90;;;2.40;97.20;;;;;;1707382;28;20213;-67
2023/01/20 06:36:44;;;;;;;11.23;10.13;;;2.40;97.20;;;;;;1707229;28;20571;-67
2023/01/20 06:37:35;;;;;;;13.13;11.43;;;2.40;97.20;;;;;;1707447;28;20199;-67
2023/01/20 06:38:29;;;;;;;12.37;11.17;;;2.30;97.20;;;;;;1707390;28;20210;-66
2023/01/20 06:39:20;;;;;;;11.27;10.27;;;2.30;97.20;;;;;;1707348;28;20233;-67
2023/01/20 06:40:13;;;;;;;11.70;10.27;;;2.30;97.20;;;;;;1707398;28;20287;-67
2023/01/20 06:41:06;;;;;;;11.07;10.02;;;2.30;97.20;;;;;;1706749;28;20214;-66
2023/01/20 06:41:58;;;;;;;12.23;10.90;;;2.30;97.20;;;;;;1707505;28;20653;-67
2023/01/20 06:42:49;;;;;;;11.05;9.88;;;2.20;97.20;;;;;;1707230;28;20206;-67
2023/01/20 06:43:40;;;;;;;12.33;10.87;;;2.20;97.20;;;;;;1707491;28;20286;-67
2023/01/20 06:44:32;;;;;;;12.48;9.98;;;2.20;97.20;;;;;;1707400;28;20229;-67
2023/01/20 06:45:24;;;;;;;11.98;10.80;;;2.20;97.20;;;;;;1707181;28;20202;-67
2023/01/20 06:46:15;;;;;;;13.23;10.77;;;2.20;97.20;;;;;;1706723;28;20651;-67
2023/01/20 06:47:08;;;;;;;12.00;10.50;;;2.20;97.20;;;;;;1703134;29;20241;-67
2023/01/20 06:47:59;;;;;;;11.30;10.30;;;2.20;97.20;;;;;;1707289;28;20944;-66
2023/01/20 06:48:50;;;;;;;11.63;10.47;;;2.20;97.20;;;;;;1707416;28;20663;-67
2023/01/20 06:49:41;;;;;;;10.27;9.40;;;2.20;97.20;;;;;;1707318;28;20660;-67
2023/01/20 06:50:33;;;;;;;11.83;10.73;;;2.20;97.20;;;;;;1707481;28;20753;-67
2023/01/20 06:51:23;;;;;;;10.45;9.45;;;2.20;97.20;;;;;;1706737;28;20214;-67
2023/01/20 06:52:15;;;;;;;11.43;10.23;;;2.20;97.20;;;;;;1707297;29;20207;-67
2023/01/20 06:53:07;;;;;;;11.48;10.38;;;2.20;97.20;;;;;;1707124;28;20210;-67
2023/01/20 06:53:58;;;;;;;11.90;10.68;;;2.20;97.20;;;;;;1707266;28;20293;-67
2023/01/20 06:54:49;;;;;;;11.25;9.77;;;2.20;97.20;;;;;;1707205;28;20209;-67
2023/01/20 06:55:41;;;;;;;10.57;9.50;;;2.20;97.20;;;;;;1707238;28;20206;-67
2023/01/20 06:56:33;;;;;;;10.88;9.88;;;2.20;97.20;;;;;;1707229;28;20582;-67
2023/01/20 06:57:24;;;;;;;10.65;9.75;;;2.20;97.20;;;;;;1707134;28;20221;-67
2023/01/20 06:58:15;;;;;;;11.73;10.63;;;2.20;97.20;;;;;;1707029;28;20472;-67
2023/01/20 06:59:06;;;;;;;11.07;10.05;;;2.20;97.20;;;;;;1707055;28;20199;-67
2023/01/20 06:59:58;;;;;;;10.83;9.83;;;2.20;97.20;;;;;;1707056;28;20202;-69
2023/01/20 07:00:49;;;;;;;11.43;10.32;;;2.20;97.20;;;;;;1707231;28;20605;-67
2023/01/20 07:01:41;;;;;;;10.93;9.90;;;2.20;97.20;;;;;;1706690;28;20552;-67
2023/01/20 07:02:33;;;;;;;11.00;10.00;;;2.20;97.20;;;;;;1707050;28;20470;-67
2023/01/20 07:03:25;;;;;;;11.15;10.05;;;2.20;97.20;;;;;;1707207;28;20583;-67
2023/01/20 07:04:16;;;;;;;10.82;9.82;;;2.20;97.20;;;;;;1706728;28;20210;-67
2023/01/20 07:05:09;;;;;;;11.55;10.45;;;2.20;97.20;;;;;;1706049;29;20664;-67
2023/01/20 07:06:02;;;;;;;10.52;9.48;;;2.20;97.20;;;;;;1706531;28;20578;-67
2023/01/20 07:06:53;;;;;;;11.68;10.57;;;2.20;97.20;;;;;;1706422;28;20649;-66
2023/01/20 07:07:45;;;;;;;13.03;11.73;;;2.20;97.20;;;;;;1706535;29;20606;-66
2023/01/20 07:08:35;;;;;;;12.68;11.38;;;2.30;97.20;;;;;;1706654;28;20206;-66
2023/01/20 07:09:27;;;;;;;16.00;14.40;;;2.30;97.20;;;;;;1706622;28;20657;-67
2023/01/20 07:10:18;;;;;;;16.88;14.68;;;2.30;97.20;;;;;;1706510;28;20217;-67
2023/01/20 07:11:10;;;;;;;16.00;14.40;;;2.30;97.20;;;;;;1706026;28;20198;-66
2023/01/20 07:12:00;;;;;;;15.25;13.82;;;2.30;97.20;;;;;;1706657;29;20454;-65
2023/01/20 07:12:52;;;;;;;13.53;12.30;;;2.40;97.20;;;;;;1706577;28;20202;-64
2023/01/20 07:13:44;;;;;;;13.32;12.00;;;2.40;97.20;;;;;;1706608;28;20240;-65
2023/01/20 07:14:35;;;;;;;13.15;11.95;;;2.40;97.20;;;;;;1705509;28;20214;-65
2023/01/20 07:15:26;;;;;;;13.52;12.15;;;2.40;97.20;;;;;;1706620;28;20287;-65
2023/01/20 07:16:18;;;;;;;13.10;11.80;;;2.40;97.20;;;;;;1707057;28;20202;-65
2023/01/20 07:17:10;;;;;;;12.60;11.30;;;2.40;97.20;;;;;;1705727;29;20252;-65
2023/01/20 07:18:04;;;;;;;12.40;11.40;;;2.40;97.20;;;;;;1707041;28;20276;-65
2023/01/20 07:18:55;;;;;;;12.15;10.93;;;2.40;97.20;;;;;;1707223;28;20211;-65
2023/01/20 07:19:46;;;;;;;12.77;11.48;;;2.40;97.20;;;;;;1706459;28;20194;-65
2023/01/20 07:20:37;;;;;;;11.55;10.45;;;2.40;97.20;;;;;;1706957;28;20226;-65
2023/01/20 07:21:29;;;;;;;12.10;10.77;;;2.40;97.20;;;;;;1706667;28;20198;-65
2023/01/20 07:22:20;;;;;;;11.70;10.63;;;2.40;97.20;;;;;;1706918;28;20221;-65
2023/01/20 07:23:11;;;;;;;12.27;10.97;;;2.50;97.20;;;;;;1707072;28;20224;-65
2023/01/20 07:24:03;;;;;;;11.70;10.50;;;2.50;97.20;;;;;;1703514;28;20638;-65
2023/01/20 07:24:54;;;;;;;12.65;11.35;;;2.50;97.20;;;;;;1707120;28;20238;-65
2023/01/20 07:25:45;;;;;;;12.48;11.27;;;2.50;97.20;;;;;;1706796;28;20217;-66
2023/01/20 07:26:37;;;;;;;14.33;10.53;;;2.50;97.20;;;;;;1706994;28;20729;-65
2023/01/20 07:27:27;;;;;;;12.57;10.85;;;2.60;97.20;;;;;;1707134;28;20210;-65
2023/01/20 07:28:19;;;;;;;12.20;11.00;;;2.60;97.20;;;;;;1706865;28;20202;-65
2023/01/20 07:29:10;;;;;;;11.48;10.27;;;2.60;97.20;;;;;;1707200;28;20237;-66
2023/01/20 07:30:01;;;;;;;10.40;9.50;;;2.60;97.20;;;;;;1705987;28;20206;-66
2023/01/20 07:30:53;;;;;;;11.68;10.45;;;2.60;97.20;;;;;;1706981;28;20266;-65
2023/01/20 07:31:45;;;;;;;10.07;9.18;;;2.60;97.20;;;;;;1706545;28;20210;-64
2023/01/20 07:32:36;;;;;;;10.60;9.60;;;2.60;97.20;;;;;;1700494;29;20199;-65
2023/01/20 07:33:29;;;;;;;10.90;10.00;;;2.60;97.20;;;;;;1700604;29;20653;-66
2023/01/20 07:34:19;;;;;;;10.85;9.75;;;2.60;97.20;;;;;;1700489;29;20716;-64
2023/01/20 07:35:11;;;;;;;10.20;9.20;;;2.60;97.20;;;;;;1700602;29;20217;-65
2023/01/20 07:36:03;;;;;;;10.48;9.45;;;2.60;97.20;;;;;;1700639;29;20681;-65
2023/01/20 07:36:55;;;;;;;10.23;9.32;;;2.60;97.20;;;;;;1706729;28;20672;-65
2023/01/20 07:37:46;;;;;;;10.85;9.85;;;2.60;97.20;;;;;;1706701;28;20202;-66
2023/01/20 07:38:37;;;;;;;12.43;11.07;;;2.60;97.20;;;;;;1707118;28;20213;-65
2023/01/20 07:39:28;;;;;;;11.23;10.18;;;2.60;97.20;;;;;;1705317;28;20614;-64
2023/01/20 07:40:20;;;;;;;11.73;10.63;;;2.60;97.20;;;;;;1706978;28;20584;-65
2023/01/20 07:41:14;;;;;;;11.23;10.13;;;2.60;97.20;;;;;;1706552;28;20206;-65
2023/01/20 07:42:06;;;;;;;14.77;11.85;;;2.60;97.20;;;;;;1707090;28;20209;-65
2023/01/20 07:42:57;;;;;;;14.57;11.90;;;2.60;97.20;;;;;;1706625;28;20209;-65
2023/01/20 07:43:50;;;;;;;15.37;11.30;;;2.60;97.20;;;;;;1700182;29;20666;-65
2023/01/20 07:44:41;;;;;;;16.67;12.23;;;2.60;97.20;;;;;;1700438;29;20443;-66
2023/01/20 07:45:33;;;;;;;17.27;12.47;;;2.60;97.20;;;;;;1700595;29;20211;-65
2023/01/20 07:46:23;;;;;;;15.90;12.52;;;2.60;97.20;;;;;;1701697;29;20203;-65
2023/01/20 07:47:15;;;;;;;17.37;12.57;;;2.60;97.20;;;;;;1706408;28;20702;-65
2023/01/20 07:48:06;;;;;;;15.40;11.95;;;2.70;97.20;;;;;;1706700;28;20234;-65
2023/01/20 07:48:59;;;;;;;14.50;11.65;;;2.70;97.20;;;;;;1707134;28;20679;-66
2023/01/20 07:49:50;;;;;;;15.00;12.23;;;2.70;97.20;;;;;;1707064;28;20217;-64
2023/01/20 07:50:42;;;;;;;14.87;12.60;;;2.70;97.20;;;;;;1707074;28;20301;-66
2023/01/20 07:51:33;;;;;;;14.43;11.77;;;2.70;97.20;;;;;;1706599;28;20204;-65
2023/01/20 07:52:24;;;;;;;12.60;11.00;;;2.70;97.20;;;;;;1706952;28;20198;-66
2023/01/20 07:53:15;;;;;;;12.50;11.10;;;2.70;97.20;;;;;;1707047;28;20210;-65
2023/01/20 07:54:08;;;;;;;12.40;11.17;;;2.70;97.20;;;;;;1707003;28;20202;-66
2023/01/20 07:54:58;;;;;;;14.20;12.80;;;2.70;97.20;;;;;;1707064;28;20202;-64
2023/01/20 07:55:50;;;;;;;14.20;12.70;;;2.70;97.20;;;;;;1703714;28;20249;-65
2023/01/20 07:56:41;;;;;;;13.48;12.07;;;2.70;97.20;;;;;;1706759;28;20203;-66
2023/01/20 07:57:33;;;;;;;12.77;11.43;;;2.70;97.20;;;;;;1706369;29;20199;-65
2023/01/20 07:58:24;;;;;;;12.48;11.35;;;2.70;97.20;;;;;;1706613;29;20496;-66
2023/01/20 07:59:15;;;;;;;11.53;10.43;;;2.70;97.20;;;;;;1707119;29;20269;-66
2023/01/20 08:00:07;;;;;;;11.85;10.65;;;2.70;97.20;;;;;;1707114;28;20255;-66
2023/01/20 08:01:07;;;;;;;11.45;10.25;;;2.70;97.20;;;;;;1706832;28;20617;-65
2023/01/20 08:01:59;;;;;;;13.70;10.73;;;2.70;97.20;;;;;;1706726;28;20731;-66
2023/01/20 08:02:50;;;;;;;11.85;10.65;;;2.70;97.20;;;;;;1706616;28;20206;-66
2023/01/20 08:03:42;;;;;;;11.90;10.80;;;2.70;97.20;;;;;;1706269;29;20195;-65
2023/01/20 08:04:34;;;;;;;11.57;10.40;;;2.70;97.20;;;;;;1706359;29;20203;-65
2023/01/20 08:05:26;;;;;;;11.25;10.25;;;2.70;97.20;;;;;;1706552;29;20217;-66
2023/01/20 08:06:19;;;;;;;12.48;11.25;;;2.70;97.20;;;;;;1700472;29;20214;-65
2023/01/20 08:07:11;;;;;;;11.10;10.10;;;2.70;97.20;;;;;;1700062;29;20764;-66
2023/01/20 08:08:01;;;;;;;10.60;9.68;;;2.70;97.20;;;;;;1700398;29;20207;-65
2023/01/20 08:08:54;;;;;;;12.03;10.70;;;2.70;97.20;;;;;;1700539;29;20203;-66
2023/01/20 08:09:45;;;;;;;11.75;10.10;;;2.60;97.20;;;;;;1700290;29;20207;-65
2023/01/20 08:10:37;;;;;;;11.40;10.20;;;2.60;97.20;;;;;;1701449;29;20227;-65
2023/01/20 08:11:30;;;;;;;10.88;9.85;;;2.70;97.20;;;;;;1705966;28;20634;-64
2023/01/20 08:12:22;;;;;;;10.85;9.85;;;2.70;97.20;;;;;;1702627;28;20207;-65
2023/01/20 08:13:13;;;;;;;11.20;10.10;;;2.70;97.20;;;;;;1706700;28;20291;-65
2023/01/20 08:14:05;;;;;;;11.37;10.17;;;2.70;97.20;;;;;;1706576;28;20214;-65
2023/01/20 08:14:55;;;;;;;10.98;9.98;;;2.70;97.20;;;;;;1706391;28;20257;-65
2023/01/20 08:15:47;;;;;;;10.40;9.40;;;2.80;97.20;;;;;;1704338;28;20221;-65
2023/01/20 08:16:38;;;;;;;11.00;10.00;;;2.70;97.20;;;;;;1702925;29;20249;-65
2023/01/20 08:17:29;;;;;;;10.87;9.73;;;2.80;97.20;;;;;;1706480;28;20195;-65
2023/01/20 08:18:20;;;;;;;10.43;9.32;;;2.80;97.20;;;;;;1706117;29;20202;-66
2023/01/20 08:19:12;;;;;;;9.67;8.80;;;2.80;97.20;;;;;;1706530;28;20257;-64
2023/01/20 08:20:06;;;;;;;10.88;9.38;;;2.80;97.20;;;;;;1706821;28;20242;-65
2023/01/20 08:20:58;;;;;;;9.80;8.88;;;2.80;97.20;;;;;;1706699;28;20221;-65
2023/01/20 08:21:49;;;;;;;9.82;8.93;;;2.80;97.20;;;;;;1706213;28;20209;-66
2023/01/20 08:22:41;;;;;;;12.13;10.60;;;2.80;97.20;;;;;;1706854;28;20293;-65
2023/01/20 08:23:32;;;;;;;10.10;9.10;;;2.80;97.20;;;;;;1706748;28;20685;-65
2023/01/20 08:24:23;;;;;;;10.50;9.38;;;2.90;97.20;;;;;;1706377;28;20557;-65
2023/01/20 08:25:14;;;;;;;10.40;9.50;;;2.90;97.20;;;;;;1706569;28;20237;-66
2023/01/20 08:26:07;;;;;;;12.17;9.70;;;2.90;97.20;;;;;;1705925;28;20209;-65
2023/01/20 08:26:58;;;;;;;10.48;9.55;;;3.00;97.20;;;;;;1706311;28;20494;-64
2023/01/20 08:27:49;;;;;;;10.10;9.20;;;3.00;97.20;;;;;;1706751;28;20207;-66
2023/01/20 08:28:41;;;;;;;10.30;9.30;;;3.00;97.20;;;;;;1706901;28;20210;-66
2023/01/20 08:29:33;;;;;;;10.88;9.57;;;3.00;97.20;;;;;;1707019;28;20210;-65
2023/01/20 08:30:24;;;;;;;11.40;9.45;;;3.10;97.20;;;;;;1706561;28;20285;-65
2023/01/20 08:31:17;;;;;;;10.13;9.13;;;3.10;97.20;;;;;;1706245;28;20274;-65
2023/01/20 08:32:09;;;;;;;9.82;8.93;;;3.10;97.20;;;;;;1707440;28;20257;-65
2023/01/20 08:32:59;;;;;;;10.07;9.13;;;3.20;97.20;;;;;;1708059;28;20210;-66
2023/01/20 08:33:53;;;;;;;9.43;8.60;;;3.20;97.20;;;;;;1708019;28;20198;-65
2023/01/20 08:34:44;;;;;;;10.38;9.30;;;3.30;97.20;;;;;;1708016;28;20210;-66
2023/01/20 08:35:37;;;;;;;10.37;8.70;;;3.30;97.20;;;;;;1708203;28;20202;-66
2023/01/20 08:36:30;;;;;;;9.68;8.73;;;3.30;97.20;;;;;;1707821;28;20458;-64
2023/01/20 08:37:22;;;;;;;10.68;9.60;;;3.30;97.20;;;;;;1707920;28;20257;-65
2023/01/20 08:38:13;;;;;;;9.98;9.05;;;3.40;97.20;;;;;;1708021;28;20233;-66
2023/01/20 08:39:07;;;;;;;11.70;9.43;;;3.40;97.20;;;;;;1707767;28;20291;-66
2023/01/20 08:39:58;;;;;;;10.25;9.35;;;3.50;97.20;;;;;;1708101;28;20454;-64
2023/01/20 08:40:49;;;;;;;10.40;9.40;;;3.50;97.20;;;;;;1706662;28;20301;-65
2023/01/20 08:41:43;;;;;;;10.50;9.20;;;3.50;97.20;;;;;;1700916;29;20239;-65
2023/01/20 08:42:34;;;;;;;11.48;10.27;;;3.60;97.20;;;;;;1701315;29;20203;-66
2023/01/20 08:43:26;;;;;;;10.50;9.50;;;3.70;97.20;;;;;;1701512;29;20205;-65
2023/01/20 08:44:17;;;;;;;12.23;10.90;;;3.80;97.20;;;;;;1702359;29;20218;-65
2023/01/20 08:45:09;;;;;;;11.13;10.07;;;3.80;97.20;;;;;;1708028;28;20552;-66
2023/01/20 08:46:01;;;;;;;11.23;10.18;;;3.90;97.20;;;;;;1707731;28;20206;-65
2023/01/20 08:46:58;;;;;;;10.98;9.88;;;3.90;97.20;;;;;;1707658;28;20703;-65
2023/01/20 08:47:48;;;;;;;10.10;9.23;;;4.00;97.20;;;;;;1707880;28;20206;-65
2023/01/20 08:48:42;;;;;;;10.87;9.83;;;4.10;97.20;;;;;;1708151;28;20277;-66
2023/01/20 08:49:33;;;;;;;10.82;9.63;;;4.10;97.20;;;;;;1708095;28;20209;-64
2023/01/20 08:50:24;;;;;;;10.60;9.60;;;4.10;97.20;;;;;;1707958;28;20578;-65
2023/01/20 08:51:19;;;;;;;9.63;8.73;;;4.20;97.20;;;;;;1707404;28;20195;-65
2023/01/20 08:52:11;;;;;;;10.48;9.38;;;4.20;97.20;;;;;;1707974;28;20202;-65
2023/01/20 08:53:02;;;;;;;9.80;8.80;;;4.30;97.20;;;;;;1707911;28;20213;-65
2023/01/20 08:53:54;;;;;;;11.13;9.17;;;4.30;97.20;;;;;;1707897;28;20216;-65
2023/01/20 08:54:44;;;;;;;10.48;9.45;;;4.30;97.20;;;;;;1707965;28;20609;-64
2023/01/20 08:55:36;;;;;;;9.90;8.90;;;4.40;97.20;;;;;;1708071;28;20563;-66
2023/01/20 08:56:28;;;;;;;9.95;9.02;;;4.40;97.20;;;;;;1707468;28;20203;-65
2023/01/20 08:57:19;;;;;;;10.68;9.70;;;4.40;97.20;;;;;;1707790;28;20230;-65
2023/01/20 08:58:17;;;;;;;9.83;8.83;;;4.40;97.20;;;;;;1707846;28;20206;-65
2023/01/20 08:59:09;;;;;;;9.65;8.82;;;4.40;97.20;;;;;;1707777;28;20206;-66
2023/01/20 09:00:01;;;;;;;9.13;8.32;;;4.50;97.20;;;;;;1707875;28;20234;-65
2023/01/20 09:00:51;;;;;;;9.85;8.95;;;4.50;97.20;;;;;;1707778;28;20226;-66
2023/01/20 09:01:43;;;;;;;9.60;8.70;;;4.50;97.20;;;;;;1707522;28;20212;-65
2023/01/20 09:02:35;;;;;;;9.30;8.27;;;4.50;97.20;;;;;;1707850;28;20207;-65
2023/01/20 09:03:27;;;;;;;9.25;8.45;;;4.50;97.20;;;;;;1707817;28;20204;-66
2023/01/20 09:04:18;;;;;;;10.52;9.43;;;4.50;97.20;;;;;;1708013;28;20618;-65
2023/01/20 09:05:10;;;;;;;10.70;8.87;;;4.50;97.20;;;;;;1707884;28;20229;-66
2023/01/20 09:06:02;;;;;;;9.85;8.68;;;4.50;97.20;;;;;;1707604;28;20258;-66
2023/01/20 09:07:03;;;;;;;9.85;8.95;;;4.50;97.20;;;;;;1707549;28;20772;-67
2023/01/20 09:07:54;;;;;;;9.35;8.45;;;4.50;97.20;;;;;;1707933;28;20195;-66
2023/01/20 09:08:46;;;;;;;9.50;8.60;;;4.60;97.20;;;;;;1707832;28;20230;-65
2023/01/20 09:09:37;;;;;;;9.68;8.65;;;4.50;97.20;;;;;;1707876;28;20253;-65
2023/01/20 09:10:31;;;;;;;8.35;7.55;;;4.50;97.20;;;;;;1707779;28;20262;-66
2023/01/20 09:11:23;;;;;;;9.07;8.18;;;4.60;97.20;;;;;;1707026;28;20250;-66
2023/01/20 09:12:15;;;;;;;10.27;9.27;;;4.60;97.20;;;;;;1707223;28;20202;-66
2023/01/20 09:13:06;;;;;;;9.05;7.95;;;4.60;97.20;;;;;;1707826;28;20222;-66
2023/01/20 09:13:58;;;;;;;8.03;7.33;;;4.70;97.20;;;;;;1707636;28;20203;-65
2023/01/20 09:14:48;;;;;;;9.40;8.57;;;4.70;97.20;;;;;;1707904;28;20214;-66
2023/01/20 09:15:40;;;;;;;8.60;7.40;;;4.70;97.20;;;;;;1707953;28;20208;-65
2023/01/20 09:16:32;;;;;;;8.73;7.65;;;4.80;97.20;;;;;;1707609;28;20226;-66
2023/01/20 09:17:23;;;;;;;11.05;7.65;;;4.80;97.20;;;;;;1707718;28;20199;-66
2023/01/20 09:18:14;;;;;;;8.87;8.13;;;4.80;97.20;;;;;;1707799;28;20202;-65
2023/01/20 09:19:06;;;;;;;8.80;7.82;;;4.80;97.20;;;;;;1707836;28;20482;-63
2023/01/20 09:19:57;;;;;;;9.55;8.63;;;4.80;97.20;;;;;;1707856;28;20219;-66
2023/01/20 09:20:48;;;;;;;8.43;7.60;;;4.80;97.20;;;;;;1707798;28;20246;-65
2023/01/20 09:21:40;;;;;;;9.32;8.40;;;4.80;97.20;;;;;;1707175;28;20243;-65
2023/01/20 09:22:32;;;;;;;8.18;7.40;;;4.80;97.20;;;;;;1707752;28;20279;-66
2023/01/20 09:23:24;;;;;;;9.70;7.68;;;4.90;97.20;;;;;;1707791;28;20210;-65
2023/01/20 09:24:16;;;;;;;8.90;8.10;;;4.90;97.20;;;;;;1707808;28;20213;-65
2023/01/20 09:25:08;;;;;;;9.77;7.90;;;5.00;97.20;;;;;;1707842;28;20211;-65
2023/01/20 09:26:00;;;;;;;9.07;8.18;;;5.00;97.20;;;;;;1707572;28;20213;-65
2023/01/20 09:26:52;;;;;;;8.43;7.60;;;5.10;97.20;;;;;;1707359;28;20199;-66
2023/01/20 09:27:43;;;;;;;8.38;7.50;;;5.20;97.20;;;;;;1707582;28;20581;-66
2023/01/20 09:28:34;;;;;;;8.52;7.72;;;5.20;97.20;;;;;;1707839;28;20214;-66
2023/01/20 09:29:26;;;;;;;8.82;8.02;;;5.30;97.20;;;;;;1707785;28;20723;-66
2023/01/20 09:30:17;;;;;;;8.50;7.57;;;5.40;97.20;;;;;;1707611;28;20601;-66
2023/01/20 09:31:10;;;;;;;9.98;8.55;;;5.50;97.20;;;;;;1707069;28;20191;-66
2023/01/20 09:32:01;;;;;;;7.97;7.28;;;5.60;97.20;;;;;;1707805;28;20233;-66
2023/01/20 09:32:55;;;;;;;8.23;7.10;;;5.70;97.20;;;;;;1707649;28;20206;-66
2023/01/20 09:33:46;;;;;;;8.15;7.40;;;5.80;97.20;;;;;;1707638;28;20199;-65
2023/01/20 09:34:38;;;;;;;8.77;7.63;;;5.90;97.20;;;;;;1708161;28;20214;-65
2023/01/20 09:35:29;;;;;;;7.65;6.95;;;6.10;97.20;;;;;;1707667;28;20205;-66
2023/01/20 09:36:20;;;;;;;9.10;7.40;;;6.30;97.20;;;;;;1707469;28;20217;-66
2023/01/20 09:43:56;;;;;;;8.07;7.38;;;7.20;97.20;;;;;;1707760;29;20209;-66
2023/01/20 09:44:52;;;;;;;8.40;7.60;;;7.10;97.20;;;;;;1707552;28;20678;-66
2023/01/20 09:45:50;;;;;;;7.88;6.95;;;7.10;97.20;;;;;;1707697;28;20632;-66
2023/01/20 09:48:13;;;;;;;7.93;7.22;;;7.00;97.20;;;;;;1707306;29;20217;-66
2023/01/20 09:53:34;;;;;;;8.48;7.68;;;6.70;97.20;;;;;;1707513;29;20190;-65
2023/01/20 09:54:32;;;;;;;9.40;8.50;;;6.70;97.20;;;;;;1706130;29;20213;-66
2023/01/20 09:55:28;;;;;;;8.73;7.53;;;6.70;97.20;;;;;;1707514;28;20221;-66
2023/01/20 09:56:24;;;;;;;8.88;7.82;;;6.70;97.20;;;;;;1707263;28;20198;-66
2023/01/20 09:57:20;;;;;;;8.80;7.95;;;6.70;97.20;;;;;;1707113;28;20198;-66
2023/01/20 09:58:20;;;;;;;9.68;8.68;;;6.70;97.20;;;;;;1707549;28;20209;-66
2023/01/20 09:59:18;;;;;;;9.13;8.23;;;6.70;97.20;;;;;;1707597;28;20214;-66
2023/01/20 10:00:15;;;;;;;9.55;8.60;;;6.70;97.20;;;;;;1707518;28;20578;-65
2023/01/20 10:01:13;;;;;;;8.75;7.95;;;6.70;97.20;;;;;;1707159;28;20191;-65
2023/01/20 10:02:12;;;;;;;10.32;8.25;;;6.70;97.20;;;;;;1700871;29;20653;-66
2023/01/20 10:03:10;;;;;;;8.48;7.72;;;6.70;97.20;;;;;;1700911;29;20199;-66
2023/01/20 10:04:09;;;;;;;9.10;8.20;;;6.80;97.20;;;;;;1701030;29;20191;-66
2023/01/20 10:05:11;;;;;;;9.10;7.70;;;6.80;97.20;;;;;;1700975;29;20242;-66
2023/01/20 10:06:10;;;;;;;9.32;8.60;;;6.90;97.20;;;;;;1700829;29;20230;-66
2023/01/20 10:07:09;;;;;;;9.65;8.75;;;6.90;97.20;;;;;;1706805;29;20226;-65
2023/01/20 10:08:07;;;;;;;10.07;8.40;;;7.00;97.20;;;;;;1700581;29;20286;-65
2023/01/20 10:09:01;;;;;;;9.05;8.25;;;7.00;97.20;;;;;;1701066;29;20199;-66
2023/01/20 10:09:59;;;;;;;9.10;8.20;;;7.00;97.20;;;;;;1707114;29;20278;-66
2023/01/20 10:10:54;;;;;;;10.10;9.10;;;7.10;97.20;;;;;;1707366;28;20249;-66
2023/01/20 10:11:47;;;;;;;8.25;7.55;;;7.10;97.20;;;;;;1706820;28;20225;-66
2023/01/20 10:12:41;;;;;;;9.60;8.48;;;7.10;97.20;;;;;;1707509;28;20212;-66
2023/01/20 10:13:46;;;;;;;9.40;8.57;;;7.20;97.20;;;;;;1707497;28;20202;-66
2023/01/20 10:14:41;;;;;;;11.45;10.27;;;7.20;97.20;;;;;;1707644;28;20607;-66
2023/01/20 10:15:36;;;;;;;13.65;12.23;;;7.30;97.20;;;;;;1707492;28;20554;-66
2023/01/20 10:16:32;;;;;;;13.15;11.55;;;7.30;97.20;;;;;;1707223;28;20209;-66
2023/01/20 10:17:29;;;;;;;14.25;12.45;;;7.40;97.20;;;;;;1707432;28;20749;-66
2023/01/20 10:18:28;;;;;;;13.20;11.80;;;7.40;97.20;;;;;;1707408;28;20210;-65
2023/01/20 10:19:26;;;;;;;12.90;11.68;;;7.50;97.20;;;;;;1707545;28;20217;-66
2023/01/20 10:20:26;;;;;;;13.15;11.50;;;7.60;97.20;;;;;;1707373;28;20222;-64
2023/01/20 10:21:22;;;;;;;11.43;10.32;;;7.70;97.20;;;;;;1706744;28;20230;-66
2023/01/20 10:22:17;;;;;;;11.60;9.95;;;7.80;97.20;;;;;;1700705;29;20188;-66
2023/01/20 10:23:14;;;;;;;9.68;8.05;;;7.90;97.20;;;;;;1700773;29;20187;-66
2023/01/20 10:24:12;;;;;;;10.15;8.85;;;7.90;97.20;;;;;;1700840;29;20199;-66
2023/01/20 10:25:09;;;;;;;9.65;8.70;;;7.90;97.20;;;;;;1700819;29;20198;-65
2023/01/20 10:26:07;;;;;;;9.57;8.68;;;7.90;97.20;;;;;;1700822;29;20660;-66
2023/01/20 10:27:02;;;;;;;10.68;9.68;;;8.00;97.20;;;;;;1701482;29;20215;-66
2023/01/20 10:27:56;;;;;;;9.82;8.70;;;8.10;97.20;;;;;;1700536;29;20220;-66
2023/01/20 10:28:55;;;;;;;8.52;7.72;;;8.20;97.20;;;;;;1703854;29;20202;-66
2023/01/20 10:29:51;;;;;;;9.25;8.30;;;8.20;97.20;;;;;;1707226;28;20187;-65
2023/01/20 10:30:43;;;;;;;10.30;9.30;;;8.40;97.20;;;;;;1707308;28;20234;-66
2023/01/20 10:31:38;;;;;;;9.48;8.57;;;8.50;97.20;;;;;;1706830;28;20261;-65
2023/01/20 10:32:35;;;;;;;9.70;8.80;;;9.30;97.20;;;;;;1707297;28;20202;-66
2023/01/20 10:33:31;;;;;;;10.35;9.30;;;9.60;97.20;;;;;;1707401;28;20206;-65
2023/01/20 10:34:22;;;;;;;12.55;8.98;;;9.90;97.20;;;;;;1707425;28;20640;-66
2023/01/20 10:35:17;;;;;;;9.20;8.10;;;10.00;97.20;;;;;;1707174;28;20665;-65
2023/01/20 10:36:15;;;;;;;9.65;8.75;;;10.00;97.20;;;;;;1706999;28;20611;-66
2023/01/20 10:37:08;;;;;;;9.35;8.45;;;10.00;97.20;;;;;;1706960;28;20272;-66
2023/01/20 10:38:00;;;;;;;8.93;8.00;;;10.00;97.20;;;;;;1707162;28;20211;-66
2023/01/20 10:38:57;;;;;;;9.77;8.55;;;10.10;97.20;;;;;;1707265;28;20214;-68
2023/01/20 10:39:54;;;;;;;9.80;8.90;;;10.10;97.20;;;;;;1707318;28;20218;-65
2023/01/20 10:40:51;;;;;;;9.05;8.25;;;10.10;97.20;;;;;;1707095;28;20281;-66
2023/01/20 10:41:50;;;;;;;8.95;8.23;;;10.00;97.20;;;;;;1706530;28;20783;-66
2023/01/20 10:42:47;;;;;;;9.38;8.52;;;9.90;97.20;;;;;;1707232;28;20195;-66
2023/01/20 10:43:38;;;;;;;9.07;8.07;;;9.80;97.20;;;;;;1707395;28;20210;-66
2023/01/20 10:44:34;;;;;;;10.60;9.23;;;9.70;97.20;;;;;;1707344;28;20198;-66
2023/01/20 10:45:37;;;;;;;9.73;8.65;;;9.70;97.20;;;;;;1707304;28;20591;-67
2023/01/20 10:46:45;;;;;;;10.00;9.10;;;9.60;97.20;;;;;;1707257;28;20198;-66